sensor_id;sensor_type;location;lat;lon;timestamp;temperature;humidity
7218;DHT22;3650;53.580;10.094;2024-03-06T00:01:03;8.40;71.10
7218;DHT22;3650;53.580;10.094;2024-03-06T00:03:30;8.40;71.20
7218;DHT22;3650;53.580;10.094;2024-03-06T00:05:57;8.40;71.40
7218;DHT22;3650;53.580;10.094;2024-03-06T00:08:24;8.40;71.80
7218;DHT22;3650;53.580;10.094;2024-03-06T00:10:50;8.40;71.80
7218;DHT22;3650;53.580;10.094;2024-03-06T00:13:17;8.40;71.90
7218;DHT22;3650;53.580;10.094;2024-03-06T00:15:45;8.40;71.80
7218;DHT22;3650;53.580;10.094;2024-03-06T00:18:12;8.40;71.80
7218;DHT22;3650;53.580;10.094;2024-03-06T00:20:39;8.40;71.70
7218;DHT22;3650;53.580;10.094;2024-03-06T00:23:07;8.40;71.50
7218;DHT22;3650;53.580;10.094;2024-03-06T00:25:34;8.40;71.40
7218;DHT22;3650;53.580;10.094;2024-03-06T00:28:01;8.50;71.60
7218;DHT22;3650;53.580;10.094;2024-03-06T00:30:28;8.40;71.30
7218;DHT22;3650;53.580;10.094;2024-03-06T00:32:56;8.40;71.20
7218;DHT22;3650;53.580;10.094;2024-03-06T00:35:24;8.40;71.70
7218;DHT22;3650;53.580;10.094;2024-03-06T00:37:51;8.40;71.80
7218;DHT22;3650;53.580;10.094;2024-03-06T00:40:18;8.40;72.00
7218;DHT22;3650;53.580;10.094;2024-03-06T00:42:45;8.40;72.00
7218;DHT22;3650;53.580;10.094;2024-03-06T00:45:12;8.40;72.30
7218;DHT22;3650;53.580;10.094;2024-03-06T00:47:39;8.40;72.30
7218;DHT22;3650;53.580;10.094;2024-03-06T00:50:07;8.40;72.00
7218;DHT22;3650;53.580;10.094;2024-03-06T00:52:34;8.40;71.00
7218;DHT22;3650;53.580;10.094;2024-03-06T00:55:01;8.40;71.90
7218;DHT22;3650;53.580;10.094;2024-03-06T00:57:28;8.40;72.10
7218;DHT22;3650;53.580;10.094;2024-03-06T00:59:54;8.40;71.40
7218;DHT22;3650;53.580;10.094;2024-03-06T01:02:21;8.40;71.30
7218;DHT22;3650;53.580;10.094;2024-03-06T01:04:48;8.40;71.30
7218;DHT22;3650;53.580;10.094;2024-03-06T01:07:16;8.40;71.50
7218;DHT22;3650;53.580;10.094;2024-03-06T01:09:43;8.40;71.60
7218;DHT22;3650;53.580;10.094;2024-03-06T01:12:09;8.40;71.40
7218;DHT22;3650;53.580;10.094;2024-03-06T01:14:36;8.40;71.60
7218;DHT22;3650;53.580;10.094;2024-03-06T01:17:03;8.40;71.60
7218;DHT22;3650;53.580;10.094;2024-03-06T01:19:30;8.40;71.70
7218;DHT22;3650;53.580;10.094;2024-03-06T01:21:57;8.40;73.00
7218;DHT22;3650;53.580;10.094;2024-03-06T01:24:25;8.40;71.60
7218;DHT22;3650;53.580;10.094;2024-03-06T01:26:52;8.40;71.50
7218;DHT22;3650;53.580;10.094;2024-03-06T01:29:19;8.40;72.00
7218;DHT22;3650;53.580;10.094;2024-03-06T01:31:46;8.40;72.20
7218;DHT22;3650;53.580;10.094;2024-03-06T01:34:13;8.40;72.10
7218;DHT22;3650;53.580;10.094;2024-03-06T01:36:40;8.40;72.20
7218;DHT22;3650;53.580;10.094;2024-03-06T01:39:06;8.30;72.10
7218;DHT22;3650;53.580;10.094;2024-03-06T01:41:34;8.40;72.30
7218;DHT22;3650;53.580;10.094;2024-03-06T01:44:01;8.30;72.70
7218;DHT22;3650;53.580;10.094;2024-03-06T01:46:29;8.30;72.50
7218;DHT22;3650;53.580;10.094;2024-03-06T01:48:56;8.30;73.00
7218;DHT22;3650;53.580;10.094;2024-03-06T01:51:23;8.30;72.80
7218;DHT22;3650;53.580;10.094;2024-03-06T01:53:50;8.30;72.70
7218;DHT22;3650;53.580;10.094;2024-03-06T01:56:18;8.30;72.80
7218;DHT22;3650;53.580;10.094;2024-03-06T01:58:46;8.30;72.80
7218;DHT22;3650;53.580;10.094;2024-03-06T02:01:15;8.40;72.70
7218;DHT22;3650;53.580;10.094;2024-03-06T02:03:43;8.30;72.80
7218;DHT22;3650;53.580;10.094;2024-03-06T02:06:10;8.40;72.60
7218;DHT22;3650;53.580;10.094;2024-03-06T02:08:38;8.30;72.50
7218;DHT22;3650;53.580;10.094;2024-03-06T02:11:05;8.30;72.70
7218;DHT22;3650;53.580;10.094;2024-03-06T02:13:32;8.30;73.20
7218;DHT22;3650;53.580;10.094;2024-03-06T02:16:01;8.30;73.30
7218;DHT22;3650;53.580;10.094;2024-03-06T02:18:27;8.30;73.50
7218;DHT22;3650;53.580;10.094;2024-03-06T02:20:56;8.30;73.60
7218;DHT22;3650;53.580;10.094;2024-03-06T02:23:22;8.30;73.50
7218;DHT22;3650;53.580;10.094;2024-03-06T02:25:49;8.30;74.70
7218;DHT22;3650;53.580;10.094;2024-03-06T02:28:16;8.30;73.50
7218;DHT22;3650;53.580;10.094;2024-03-06T02:30:43;8.30;73.60
7218;DHT22;3650;53.580;10.094;2024-03-06T02:33:10;8.30;73.60
7218;DHT22;3650;53.580;10.094;2024-03-06T02:35:37;8.30;73.60
7218;DHT22;3650;53.580;10.094;2024-03-06T02:38:06;8.20;73.50
7218;DHT22;3650;53.580;10.094;2024-03-06T02:40:33;8.20;73.50
7218;DHT22;3650;53.580;10.094;2024-03-06T02:43:00;8.20;74.60
7218;DHT22;3650;53.580;10.094;2024-03-06T02:45:27;8.30;73.70
7218;DHT22;3650;53.580;10.094;2024-03-06T02:47:54;8.20;73.40
7218;DHT22;3650;53.580;10.094;2024-03-06T02:50:21;8.20;73.50
7218;DHT22;3650;53.580;10.094;2024-03-06T02:52:48;8.20;73.50
7218;DHT22;3650;53.580;10.094;2024-03-06T02:55:19;8.20;73.50
7218;DHT22;3650;53.580;10.094;2024-03-06T02:57:45;8.20;73.50
7218;DHT22;3650;53.580;10.094;2024-03-06T03:00:13;8.20;73.40
7218;DHT22;3650;53.580;10.094;2024-03-06T03:02:41;8.20;73.40
7218;DHT22;3650;53.580;10.094;2024-03-06T03:05:09;8.20;72.40
7218;DHT22;3650;53.580;10.094;2024-03-06T03:07:35;8.20;72.40
7218;DHT22;3650;53.580;10.094;2024-03-06T03:10:02;8.20;71.80
7218;DHT22;3650;53.580;10.094;2024-03-06T03:12:31;8.20;71.60
7218;DHT22;3650;53.580;10.094;2024-03-06T03:14:58;8.20;71.70
7218;DHT22;3650;53.580;10.094;2024-03-06T03:17:24;8.20;71.80
7218;DHT22;3650;53.580;10.094;2024-03-06T03:19:51;8.10;71.30
7218;DHT22;3650;53.580;10.094;2024-03-06T03:22:18;8.10;70.70
7218;DHT22;3650;53.580;10.094;2024-03-06T03:24:45;8.10;71.40
7218;DHT22;3650;53.580;10.094;2024-03-06T03:27:13;8.10;71.40
7218;DHT22;3650;53.580;10.094;2024-03-06T03:29:41;8.10;72.50
7218;DHT22;3650;53.580;10.094;2024-03-06T03:32:08;8.00;70.50
7218;DHT22;3650;53.580;10.094;2024-03-06T03:34:35;8.00;70.00
7218;DHT22;3650;53.580;10.094;2024-03-06T03:37:02;8.00;70.20
7218;DHT22;3650;53.580;10.094;2024-03-06T03:39:28;8.00;70.30
7218;DHT22;3650;53.580;10.094;2024-03-06T03:41:55;8.00;70.20
7218;DHT22;3650;53.580;10.094;2024-03-06T03:44:22;7.90;69.20
7218;DHT22;3650;53.580;10.094;2024-03-06T03:46:50;7.90;69.40
7218;DHT22;3650;53.580;10.094;2024-03-06T03:49:17;7.90;69.50
7218;DHT22;3650;53.580;10.094;2024-03-06T03:51:44;7.90;71.10
7218;DHT22;3650;53.580;10.094;2024-03-06T03:54:11;7.80;69.70
7218;DHT22;3650;53.580;10.094;2024-03-06T03:56:37;7.80;69.70
7218;DHT22;3650;53.580;10.094;2024-03-06T03:59:04;7.80;69.80
7218;DHT22;3650;53.580;10.094;2024-03-06T04:01:31;7.80;69.80
7218;DHT22;3650;53.580;10.094;2024-03-06T04:03:59;7.90;69.50
7218;DHT22;3650;53.580;10.094;2024-03-06T04:06:26;7.90;69.10
7218;DHT22;3650;53.580;10.094;2024-03-06T04:08:52;7.80;68.70
7218;DHT22;3650;53.580;10.094;2024-03-06T04:11:19;7.80;68.70
7218;DHT22;3650;53.580;10.094;2024-03-06T04:13:46;7.80;69.00
7218;DHT22;3650;53.580;10.094;2024-03-06T04:16:16;7.80;68.80
7218;DHT22;3650;53.580;10.094;2024-03-06T04:18:42;7.70;68.90
7218;DHT22;3650;53.580;10.094;2024-03-06T04:21:12;7.70;69.80
7218;DHT22;3650;53.580;10.094;2024-03-06T04:23:40;7.70;68.50
7218;DHT22;3650;53.580;10.094;2024-03-06T04:26:07;7.70;68.80
7218;DHT22;3650;53.580;10.094;2024-03-06T04:28:34;7.70;68.70
7218;DHT22;3650;53.580;10.094;2024-03-06T04:31:00;7.70;68.90
7218;DHT22;3650;53.580;10.094;2024-03-06T04:33:27;7.70;68.80
7218;DHT22;3650;53.580;10.094;2024-03-06T04:35:54;7.70;68.70
7218;DHT22;3650;53.580;10.094;2024-03-06T04:38:22;7.70;68.40
7218;DHT22;3650;53.580;10.094;2024-03-06T04:40:49;7.70;68.20
7218;DHT22;3650;53.580;10.094;2024-03-06T04:43:16;7.60;67.70
7218;DHT22;3650;53.580;10.094;2024-03-06T04:45:42;7.60;67.50
7218;DHT22;3650;53.580;10.094;2024-03-06T04:48:09;7.60;67.30
7218;DHT22;3650;53.580;10.094;2024-03-06T04:50:36;7.60;67.60
7218;DHT22;3650;53.580;10.094;2024-03-06T04:53:03;7.60;67.60
7218;DHT22;3650;53.580;10.094;2024-03-06T04:55:31;7.50;67.30
7218;DHT22;3650;53.580;10.094;2024-03-06T04:57:58;7.50;67.30
7218;DHT22;3650;53.580;10.094;2024-03-06T05:00:25;7.50;67.50
7218;DHT22;3650;53.580;10.094;2024-03-06T05:02:52;7.40;67.70
7218;DHT22;3650;53.580;10.094;2024-03-06T05:05:18;7.40;67.90
7218;DHT22;3650;53.580;10.094;2024-03-06T05:07:45;7.40;67.90
7218;DHT22;3650;53.580;10.094;2024-03-06T05:10:12;7.40;67.80
7218;DHT22;3650;53.580;10.094;2024-03-06T05:12:42;7.40;67.90
7218;DHT22;3650;53.580;10.094;2024-03-06T05:15:10;7.30;67.70
7218;DHT22;3650;53.580;10.094;2024-03-06T05:17:37;7.30;68.00
7218;DHT22;3650;53.580;10.094;2024-03-06T05:20:05;7.30;68.30
7218;DHT22;3650;53.580;10.094;2024-03-06T05:22:32;7.20;68.00
7218;DHT22;3650;53.580;10.094;2024-03-06T05:24:59;7.20;67.80
7218;DHT22;3650;53.580;10.094;2024-03-06T05:27:26;7.10;68.20
7218;DHT22;3650;53.580;10.094;2024-03-06T05:29:54;7.10;68.10
7218;DHT22;3650;53.580;10.094;2024-03-06T05:32:21;7.10;68.50
7218;DHT22;3650;53.580;10.094;2024-03-06T05:34:48;7.00;68.60
7218;DHT22;3650;53.580;10.094;2024-03-06T05:37:14;7.00;69.10
7218;DHT22;3650;53.580;10.094;2024-03-06T05:39:41;6.90;69.80
7218;DHT22;3650;53.580;10.094;2024-03-06T05:42:09;6.80;69.20
7218;DHT22;3650;53.580;10.094;2024-03-06T05:44:35;6.80;70.30
7218;DHT22;3650;53.580;10.094;2024-03-06T05:47:04;6.70;70.00
7218;DHT22;3650;53.580;10.094;2024-03-06T05:49:32;6.70;70.00
7218;DHT22;3650;53.580;10.094;2024-03-06T05:52:00;6.70;71.00
7218;DHT22;3650;53.580;10.094;2024-03-06T05:54:28;6.60;72.10
7218;DHT22;3650;53.580;10.094;2024-03-06T05:56:59;6.50;72.10
7218;DHT22;3650;53.580;10.094;2024-03-06T05:59:25;6.40;72.60
7218;DHT22;3650;53.580;10.094;2024-03-06T06:01:52;6.40;73.80
7218;DHT22;3650;53.580;10.094;2024-03-06T06:04:20;6.30;73.20
7218;DHT22;3650;53.580;10.094;2024-03-06T06:06:47;6.30;74.00
7218;DHT22;3650;53.580;10.094;2024-03-06T06:09:14;6.30;74.00
7218;DHT22;3650;53.580;10.094;2024-03-06T06:11:42;6.30;74.70
7218;DHT22;3650;53.580;10.094;2024-03-06T06:14:10;6.30;75.90
7218;DHT22;3650;53.580;10.094;2024-03-06T06:16:37;6.20;75.80
7218;DHT22;3650;53.580;10.094;2024-03-06T06:19:06;6.20;75.70
7218;DHT22;3650;53.580;10.094;2024-03-06T06:21:34;6.20;76.70
7218;DHT22;3650;53.580;10.094;2024-03-06T06:24:01;6.20;76.90
7218;DHT22;3650;53.580;10.094;2024-03-06T06:26:29;6.10;77.80
7218;DHT22;3650;53.580;10.094;2024-03-06T06:28:56;6.10;78.60
7218;DHT22;3650;53.580;10.094;2024-03-06T06:31:23;6.10;79.50
7218;DHT22;3650;53.580;10.094;2024-03-06T06:33:51;6.10;80.30
7218;DHT22;3650;53.580;10.094;2024-03-06T06:36:18;6.10;81.10
7218;DHT22;3650;53.580;10.094;2024-03-06T06:38:46;6.10;81.00
7218;DHT22;3650;53.580;10.094;2024-03-06T06:41:13;6.10;80.30
7218;DHT22;3650;53.580;10.094;2024-03-06T06:43:40;6.10;79.70
7218;DHT22;3650;53.580;10.094;2024-03-06T06:46:08;6.10;80.00
7218;DHT22;3650;53.580;10.094;2024-03-06T06:48:35;6.00;80.30
7218;DHT22;3650;53.580;10.094;2024-03-06T06:51:01;6.10;82.10
7218;DHT22;3650;53.580;10.094;2024-03-06T06:53:28;6.10;82.90
7218;DHT22;3650;53.580;10.094;2024-03-06T06:55:57;6.00;82.70
7218;DHT22;3650;53.580;10.094;2024-03-06T06:58:24;6.10;82.80
7218;DHT22;3650;53.580;10.094;2024-03-06T07:00:52;6.10;83.80
7218;DHT22;3650;53.580;10.094;2024-03-06T07:03:19;6.10;84.30
7218;DHT22;3650;53.580;10.094;2024-03-06T07:05:47;6.10;84.30
7218;DHT22;3650;53.580;10.094;2024-03-06T07:08:14;6.10;84.00
7218;DHT22;3650;53.580;10.094;2024-03-06T07:10:40;6.10;84.60
7218;DHT22;3650;53.580;10.094;2024-03-06T07:13:09;6.20;84.80
7218;DHT22;3650;53.580;10.094;2024-03-06T07:15:36;6.20;84.90
7218;DHT22;3650;53.580;10.094;2024-03-06T07:18:03;6.30;85.00
7218;DHT22;3650;53.580;10.094;2024-03-06T07:20:30;6.30;84.90
7218;DHT22;3650;53.580;10.094;2024-03-06T07:22:57;6.30;84.90
7218;DHT22;3650;53.580;10.094;2024-03-06T07:25:24;6.40;84.80
7218;DHT22;3650;53.580;10.094;2024-03-06T07:27:51;6.40;84.40
7218;DHT22;3650;53.580;10.094;2024-03-06T07:30:19;6.40;84.50
7218;DHT22;3650;53.580;10.094;2024-03-06T07:32:47;6.50;84.80
7218;DHT22;3650;53.580;10.094;2024-03-06T07:35:14;6.50;85.10
7218;DHT22;3650;53.580;10.094;2024-03-06T07:37:41;6.50;85.20
7218;DHT22;3650;53.580;10.094;2024-03-06T07:40:10;6.60;85.10
7218;DHT22;3650;53.580;10.094;2024-03-06T07:42:37;6.60;84.40
7218;DHT22;3650;53.580;10.094;2024-03-06T07:45:05;6.70;85.10
7218;DHT22;3650;53.580;10.094;2024-03-06T07:47:34;6.70;85.70
7218;DHT22;3650;53.580;10.094;2024-03-06T07:50:04;6.70;86.30
7218;DHT22;3650;53.580;10.094;2024-03-06T07:52:31;6.80;86.60
7218;DHT22;3650;53.580;10.094;2024-03-06T07:54:58;6.90;85.70
7218;DHT22;3650;53.580;10.094;2024-03-06T07:57:25;6.90;86.10
7218;DHT22;3650;53.580;10.094;2024-03-06T07:59:52;7.00;85.10
7218;DHT22;3650;53.580;10.094;2024-03-06T08:02:20;7.00;84.30
7218;DHT22;3650;53.580;10.094;2024-03-06T08:04:48;7.10;83.60
7218;DHT22;3650;53.580;10.094;2024-03-06T08:07:15;7.10;83.60
7218;DHT22;3650;53.580;10.094;2024-03-06T08:09:42;7.20;82.60
7218;DHT22;3650;53.580;10.094;2024-03-06T08:12:09;7.20;81.80
7218;DHT22;3650;53.580;10.094;2024-03-06T08:14:35;7.20;81.00
7218;DHT22;3650;53.580;10.094;2024-03-06T08:17:02;7.30;80.30
7218;DHT22;3650;53.580;10.094;2024-03-06T08:19:29;7.30;80.00
7218;DHT22;3650;53.580;10.094;2024-03-06T08:21:57;7.30;79.80
7218;DHT22;3650;53.580;10.094;2024-03-06T08:24:24;7.40;79.30
7218;DHT22;3650;53.580;10.094;2024-03-06T08:26:51;7.40;79.00
7218;DHT22;3650;53.580;10.094;2024-03-06T08:29:18;7.50;79.10
7218;DHT22;3650;53.580;10.094;2024-03-06T08:31:44;7.50;79.10
7218;DHT22;3650;53.580;10.094;2024-03-06T08:34:11;7.50;78.30
7218;DHT22;3650;53.580;10.094;2024-03-06T08:36:38;7.60;78.20
7218;DHT22;3650;53.580;10.094;2024-03-06T08:39:06;7.60;78.00
7218;DHT22;3650;53.580;10.094;2024-03-06T08:41:38;7.60;77.60
7218;DHT22;3650;53.580;10.094;2024-03-06T08:44:04;7.70;77.50
7218;DHT22;3650;53.580;10.094;2024-03-06T08:46:31;7.70;76.80
7218;DHT22;3650;53.580;10.094;2024-03-06T08:48:58;7.70;76.10
7218;DHT22;3650;53.580;10.094;2024-03-06T08:51:27;7.70;75.50
7218;DHT22;3650;53.580;10.094;2024-03-06T08:53:53;7.80;75.00
7218;DHT22;3650;53.580;10.094;2024-03-06T08:56:21;7.80;74.50
7218;DHT22;3650;53.580;10.094;2024-03-06T08:58:48;7.80;75.80
7218;DHT22;3650;53.580;10.094;2024-03-06T09:01:15;7.80;75.50
7218;DHT22;3650;53.580;10.094;2024-03-06T09:03:42;7.90;74.30
7218;DHT22;3650;53.580;10.094;2024-03-06T09:06:08;7.90;73.70
7218;DHT22;3650;53.580;10.094;2024-03-06T09:08:36;7.90;73.30
7218;DHT22;3650;53.580;10.094;2024-03-06T09:11:03;8.00;73.40
7218;DHT22;3650;53.580;10.094;2024-03-06T09:13:31;8.00;73.30
7218;DHT22;3650;53.580;10.094;2024-03-06T09:15:58;8.00;73.30
7218;DHT22;3650;53.580;10.094;2024-03-06T09:18:25;8.10;73.40
7218;DHT22;3650;53.580;10.094;2024-03-06T09:20:52;8.10;72.80
7218;DHT22;3650;53.580;10.094;2024-03-06T09:23:18;8.20;73.40
7218;DHT22;3650;53.580;10.094;2024-03-06T09:25:46;8.20;73.40
7218;DHT22;3650;53.580;10.094;2024-03-06T09:28:13;8.30;73.50
7218;DHT22;3650;53.580;10.094;2024-03-06T09:30:42;8.30;73.60
7218;DHT22;3650;53.580;10.094;2024-03-06T09:33:08;8.30;73.60
7218;DHT22;3650;53.580;10.094;2024-03-06T09:35:35;8.30;71.10
7218;DHT22;3650;53.580;10.094;2024-03-06T09:38:02;8.40;70.30
7218;DHT22;3650;53.580;10.094;2024-03-06T09:40:29;8.40;66.20
7218;DHT22;3650;53.580;10.094;2024-03-06T09:42:57;8.40;64.70
7218;DHT22;3650;53.580;10.094;2024-03-06T09:45:24;8.50;64.60
7218;DHT22;3650;53.580;10.094;2024-03-06T09:47:52;8.50;64.90
7218;DHT22;3650;53.580;10.094;2024-03-06T09:50:22;8.60;64.90
7218;DHT22;3650;53.580;10.094;2024-03-06T09:52:52;8.60;64.30
7218;DHT22;3650;53.580;10.094;2024-03-06T09:55:20;8.60;64.20
7218;DHT22;3650;53.580;10.094;2024-03-06T09:57:47;8.60;64.10
7218;DHT22;3650;53.580;10.094;2024-03-06T10:00:15;8.70;63.00
7218;DHT22;3650;53.580;10.094;2024-03-06T10:02:48;8.70;62.70
7218;DHT22;3650;53.580;10.094;2024-03-06T10:05:22;8.70;62.10
7218;DHT22;3650;53.580;10.094;2024-03-06T10:07:50;8.70;62.40
7218;DHT22;3650;53.580;10.094;2024-03-06T10:10:18;8.70;60.30
7218;DHT22;3650;53.580;10.094;2024-03-06T10:12:45;8.70;60.10
7218;DHT22;3650;53.580;10.094;2024-03-06T10:15:13;8.70;60.20
7218;DHT22;3650;53.580;10.094;2024-03-06T10:17:40;8.70;59.90
7218;DHT22;3650;53.580;10.094;2024-03-06T10:20:17;8.80;59.70
7218;DHT22;3650;53.580;10.094;2024-03-06T10:22:48;8.80;59.30
7218;DHT22;3650;53.580;10.094;2024-03-06T10:25:15;8.80;58.70
7218;DHT22;3650;53.580;10.094;2024-03-06T10:27:44;8.80;58.70
7218;DHT22;3650;53.580;10.094;2024-03-06T10:30:11;8.80;58.10
7218;DHT22;3650;53.580;10.094;2024-03-06T10:32:42;8.80;58.10
7218;DHT22;3650;53.580;10.094;2024-03-06T10:35:18;8.90;59.20
7218;DHT22;3650;53.580;10.094;2024-03-06T10:37:48;8.90;59.80
7218;DHT22;3650;53.580;10.094;2024-03-06T10:40:15;8.90;58.40
7218;DHT22;3650;53.580;10.094;2024-03-06T10:42:42;9.00;57.90
7218;DHT22;3650;53.580;10.094;2024-03-06T10:45:13;9.00;56.60
7218;DHT22;3650;53.580;10.094;2024-03-06T10:47:41;9.00;56.20
7218;DHT22;3650;53.580;10.094;2024-03-06T10:50:14;9.10;56.20
7218;DHT22;3650;53.580;10.094;2024-03-06T10:52:42;9.10;55.60
7218;DHT22;3650;53.580;10.094;2024-03-06T10:55:15;9.10;54.90
7218;DHT22;3650;53.580;10.094;2024-03-06T10:57:42;9.10;54.60
7218;DHT22;3650;53.580;10.094;2024-03-06T11:00:10;9.20;55.10
7218;DHT22;3650;53.580;10.094;2024-03-06T11:02:42;9.20;54.60
7218;DHT22;3650;53.580;10.094;2024-03-06T11:05:09;9.20;53.50
7218;DHT22;3650;53.580;10.094;2024-03-06T11:07:36;9.20;53.70
7218;DHT22;3650;53.580;10.094;2024-03-06T11:10:04;9.30;53.90
7218;DHT22;3650;53.580;10.094;2024-03-06T11:12:37;9.30;54.40
7218;DHT22;3650;53.580;10.094;2024-03-06T11:15:14;9.30;53.80
7218;DHT22;3650;53.580;10.094;2024-03-06T11:17:42;9.30;52.80
7218;DHT22;3650;53.580;10.094;2024-03-06T11:20:15;9.30;52.40
7218;DHT22;3650;53.580;10.094;2024-03-06T11:23:02;9.40;50.20
7218;DHT22;3650;53.580;10.094;2024-03-06T11:25:56;9.40;51.50
7218;DHT22;3650;53.580;10.094;2024-03-06T11:28:26;9.40;52.30
7218;DHT22;3650;53.580;10.094;2024-03-06T11:30:55;9.40;51.80
7218;DHT22;3650;53.580;10.094;2024-03-06T11:33:28;9.40;51.60
7218;DHT22;3650;53.580;10.094;2024-03-06T11:36:15;9.30;50.00
7218;DHT22;3650;53.580;10.094;2024-03-06T11:38:46;9.40;50.40
7218;DHT22;3650;53.580;10.094;2024-03-06T11:41:13;9.40;50.90
7218;DHT22;3650;53.580;10.094;2024-03-06T11:43:43;9.40;49.60
7218;DHT22;3650;53.580;10.094;2024-03-06T11:46:11;9.30;49.40
7218;DHT22;3650;53.580;10.094;2024-03-06T11:48:38;9.30;50.00
7218;DHT22;3650;53.580;10.094;2024-03-06T11:51:05;9.40;50.30
7218;DHT22;3650;53.580;10.094;2024-03-06T11:53:33;9.40;50.60
7218;DHT22;3650;53.580;10.094;2024-03-06T11:56:00;9.40;50.70
7218;DHT22;3650;53.580;10.094;2024-03-06T11:58:27;9.40;51.30
7218;DHT22;3650;53.580;10.094;2024-03-06T12:00:56;9.50;51.60
7218;DHT22;3650;53.580;10.094;2024-03-06T12:03:22;9.50;51.20
7218;DHT22;3650;53.580;10.094;2024-03-06T12:05:50;9.60;50.90
7218;DHT22;3650;53.580;10.094;2024-03-06T12:08:18;9.60;50.90
7218;DHT22;3650;53.580;10.094;2024-03-06T12:10:46;9.60;50.40
7218;DHT22;3650;53.580;10.094;2024-03-06T12:13:13;9.60;50.30
7218;DHT22;3650;53.580;10.094;2024-03-06T12:15:42;9.70;50.40
7218;DHT22;3650;53.580;10.094;2024-03-06T12:18:11;9.80;50.50
7218;DHT22;3650;53.580;10.094;2024-03-06T12:20:41;9.80;49.90
7218;DHT22;3650;53.580;10.094;2024-03-06T12:23:19;9.80;50.10
7218;DHT22;3650;53.580;10.094;2024-03-06T12:25:47;9.90;49.00
7218;DHT22;3650;53.580;10.094;2024-03-06T12:28:14;9.90;48.80
7218;DHT22;3650;53.580;10.094;2024-03-06T12:30:41;9.90;47.90
7218;DHT22;3650;53.580;10.094;2024-03-06T12:33:16;9.90;45.90
7218;DHT22;3650;53.580;10.094;2024-03-06T12:35:43;9.90;46.30
7218;DHT22;3650;53.580;10.094;2024-03-06T12:38:14;9.90;46.40
7218;DHT22;3650;53.580;10.094;2024-03-06T12:40:41;9.90;46.80
7218;DHT22;3650;53.580;10.094;2024-03-06T12:43:08;9.90;46.30
7218;DHT22;3650;53.580;10.094;2024-03-06T12:45:36;9.90;46.40
7218;DHT22;3650;53.580;10.094;2024-03-06T12:48:03;10.00;45.00
7218;DHT22;3650;53.580;10.094;2024-03-06T12:50:33;9.90;46.60
7218;DHT22;3650;53.580;10.094;2024-03-06T12:52:59;10.00;45.40
7218;DHT22;3650;53.580;10.094;2024-03-06T12:55:26;10.00;45.20
7218;DHT22;3650;53.580;10.094;2024-03-06T12:57:53;10.00;45.00
7218;DHT22;3650;53.580;10.094;2024-03-06T13:00:20;10.00;44.20
7218;DHT22;3650;53.580;10.094;2024-03-06T13:02:47;10.00;44.10
7218;DHT22;3650;53.580;10.094;2024-03-06T13:05:13;10.00;44.30
7218;DHT22;3650;53.580;10.094;2024-03-06T13:07:42;10.10;44.20
7218;DHT22;3650;53.580;10.094;2024-03-06T13:10:10;10.10;43.60
7218;DHT22;3650;53.580;10.094;2024-03-06T13:12:37;10.10;43.30
7218;DHT22;3650;53.580;10.094;2024-03-06T13:15:05;10.10;43.20
7218;DHT22;3650;53.580;10.094;2024-03-06T13:17:33;10.00;42.80
7218;DHT22;3650;53.580;10.094;2024-03-06T13:20:00;10.10;42.70
7218;DHT22;3650;53.580;10.094;2024-03-06T13:22:27;10.10;42.60
7218;DHT22;3650;53.580;10.094;2024-03-06T13:24:55;10.10;42.60
7218;DHT22;3650;53.580;10.094;2024-03-06T13:27:22;10.10;42.20
7218;DHT22;3650;53.580;10.094;2024-03-06T13:29:49;10.10;42.10
7218;DHT22;3650;53.580;10.094;2024-03-06T13:32:17;10.10;42.60
7218;DHT22;3650;53.580;10.094;2024-03-06T13:34:44;10.10;43.20
7218;DHT22;3650;53.580;10.094;2024-03-06T13:37:11;10.10;43.10
7218;DHT22;3650;53.580;10.094;2024-03-06T13:39:37;10.10;42.60
7218;DHT22;3650;53.580;10.094;2024-03-06T13:42:07;10.20;42.70
7218;DHT22;3650;53.580;10.094;2024-03-06T13:44:35;10.20;42.50
7218;DHT22;3650;53.580;10.094;2024-03-06T13:47:02;10.20;42.20
7218;DHT22;3650;53.580;10.094;2024-03-06T13:49:36;10.20;42.00
7218;DHT22;3650;53.580;10.094;2024-03-06T13:52:03;10.20;42.10
7218;DHT22;3650;53.580;10.094;2024-03-06T13:54:32;10.20;41.70
7218;DHT22;3650;53.580;10.094;2024-03-06T13:57:00;10.20;41.20
7218;DHT22;3650;53.580;10.094;2024-03-06T13:59:30;10.20;41.50
7218;DHT22;3650;53.580;10.094;2024-03-06T14:01:57;10.20;42.00
7218;DHT22;3650;53.580;10.094;2024-03-06T14:04:24;10.20;42.00
7218;DHT22;3650;53.580;10.094;2024-03-06T14:06:52;10.20;41.90
7218;DHT22;3650;53.580;10.094;2024-03-06T14:09:19;10.20;41.30
7218;DHT22;3650;53.580;10.094;2024-03-06T14:11:45;10.20;40.50
7218;DHT22;3650;53.580;10.094;2024-03-06T14:14:12;10.10;40.00
7218;DHT22;3650;53.580;10.094;2024-03-06T14:16:40;10.20;39.90
7218;DHT22;3650;53.580;10.094;2024-03-06T14:19:08;10.10;39.80
7218;DHT22;3650;53.580;10.094;2024-03-06T14:21:34;10.10;39.70
7218;DHT22;3650;53.580;10.094;2024-03-06T14:24:02;10.10;39.50
7218;DHT22;3650;53.580;10.094;2024-03-06T14:26:29;10.10;39.60
7218;DHT22;3650;53.580;10.094;2024-03-06T14:28:56;10.10;39.40
7218;DHT22;3650;53.580;10.094;2024-03-06T14:31:23;10.10;37.90
7218;DHT22;3650;53.580;10.094;2024-03-06T14:33:51;10.10;37.70
7218;DHT22;3650;53.580;10.094;2024-03-06T14:36:18;10.10;38.40
7218;DHT22;3650;53.580;10.094;2024-03-06T14:38:47;10.00;38.80
7218;DHT22;3650;53.580;10.094;2024-03-06T14:41:14;10.00;39.00
7218;DHT22;3650;53.580;10.094;2024-03-06T14:43:41;10.00;39.00
7218;DHT22;3650;53.580;10.094;2024-03-06T14:46:08;10.00;37.90
7218;DHT22;3650;53.580;10.094;2024-03-06T14:48:35;10.00;38.80
7218;DHT22;3650;53.580;10.094;2024-03-06T14:53:40;10.00;39.70
7218;DHT22;3650;53.580;10.094;2024-03-06T14:56:07;10.00;40.60
7218;DHT22;3650;53.580;10.094;2024-03-06T14:58:35;10.00;40.10
7218;DHT22;3650;53.580;10.094;2024-03-06T15:01:02;10.00;39.80
7218;DHT22;3650;53.580;10.094;2024-03-06T15:03:29;10.00;39.70
7218;DHT22;3650;53.580;10.094;2024-03-06T15:05:55;10.00;38.80
7218;DHT22;3650;53.580;10.094;2024-03-06T15:08:22;10.00;37.30
7218;DHT22;3650;53.580;10.094;2024-03-06T15:10:51;9.90;39.60
7218;DHT22;3650;53.580;10.094;2024-03-06T15:13:19;9.90;38.50
7218;DHT22;3650;53.580;10.094;2024-03-06T15:15:48;9.90;38.90
7218;DHT22;3650;53.580;10.094;2024-03-06T15:18:16;9.90;39.50
7218;DHT22;3650;53.580;10.094;2024-03-06T15:20:43;9.90;39.60
7218;DHT22;3650;53.580;10.094;2024-03-06T15:23:10;9.90;39.60
7218;DHT22;3650;53.580;10.094;2024-03-06T15:25:37;9.90;39.60
7218;DHT22;3650;53.580;10.094;2024-03-06T15:28:05;9.90;39.80
7218;DHT22;3650;53.580;10.094;2024-03-06T15:30:32;9.90;40.00
7218;DHT22;3650;53.580;10.094;2024-03-06T15:33:00;9.90;39.70
7218;DHT22;3650;53.580;10.094;2024-03-06T15:35:28;9.90;39.80
7218;DHT22;3650;53.580;10.094;2024-03-06T15:37:55;9.80;40.00
7218;DHT22;3650;53.580;10.094;2024-03-06T15:40:22;9.90;39.90
7218;DHT22;3650;53.580;10.094;2024-03-06T15:42:50;9.90;39.70
7218;DHT22;3650;53.580;10.094;2024-03-06T15:45:18;9.90;39.80
7218;DHT22;3650;53.580;10.094;2024-03-06T15:47:46;9.80;39.80
7218;DHT22;3650;53.580;10.094;2024-03-06T15:50:12;9.90;39.90
7218;DHT22;3650;53.580;10.094;2024-03-06T15:52:39;9.90;39.60
7218;DHT22;3650;53.580;10.094;2024-03-06T15:55:07;9.90;39.70
7218;DHT22;3650;53.580;10.094;2024-03-06T15:57:35;9.80;39.30
7218;DHT22;3650;53.580;10.094;2024-03-06T16:00:02;9.80;40.40
7218;DHT22;3650;53.580;10.094;2024-03-06T16:02:31;9.80;39.30
7218;DHT22;3650;53.580;10.094;2024-03-06T16:04:58;9.80;39.10